Kansas, Oklahoma
Current Conditions -  °F | °C
As of 10:15 AM on Sunday 25 Jan 2015 (Local Time) from KSLG Reporting Station
Overcast Overcast  
Wind Chill: 39°   Ceiling: 3300
Heat Index: 46°   Visibility: 10mi
Dew Point: 32°   Wind: 21mph
Humidity: 57%   Direction: 320°NW
Pressure: 29.82"   Gusts: 28mph
Location:  36.21°N, 94.8°W
Report Text: KSLG 251615Z AUTO 32018G24KT 10SM OVC033 08/00 A2982 RMK AO1
Loading
Personal Weather Stations






























Interactive Weather Map New forecast layout! Learn more

10-Day Weather Forecast

Advertisements
Track Severe Weather on mobile